CEB381 RPLL-RPMY
Flight info
| Callsign | CEB381 |
|---|---|
| Flight time | 1h 12m |
| Altitude | 35000 |
| Route | IPATA2V IPATA W25 BATAY W8 MCT W6A SAGOL SAGOL4A |
| Aircraft | A321/M-SDE3FGHIRWY/LB1 |
Departure
| Time | 2026-05-09 05:25 |
|---|---|
| Airport | Ninoy Aquino International Airport (RPLL) |
Arrival
| Time | 2026-05-09 06:37 |
|---|---|
| Airport | Laguindingan International Airport (RPMY) |
| Time | Latitude | Longitude | Altitude | Speed | Heading |
|---|---|---|---|---|---|
| 2026-05-09 04:56 | 14.52049 | 121.01140 | 81 ft | 0 kts | 45° |
| 2026-05-09 05:15 | 14.52043 | 121.01134 | 81 ft | 2 kts | 45° |
| 2026-05-09 05:15 | 14.52032 | 121.01123 | 81 ft | 2 kts | 45° |
| 2026-05-09 05:16 | 14.52022 | 121.01112 | 81 ft | 2 kts | 45° |
| 2026-05-09 05:16 | 14.52011 | 121.01101 | 81 ft | 2 kts | 45° |
| 2026-05-09 05:16 | 14.52000 | 121.01090 | 81 ft | 2 kts | 45° |
| 2026-05-09 05:16 | 14.51993 | 121.01082 | 81 ft | 0 kts | 45° |
| 2026-05-09 05:17 | 14.51982 | 121.01073 | 81 ft | 2 kts | 18° |
| 2026-05-09 05:17 | 14.51967 | 121.01071 | 81 ft | 2 kts | 353° |
| 2026-05-09 05:17 | 14.51952 | 121.01076 | 81 ft | 2 kts | 326° |
| 2026-05-09 05:17 | 14.51946 | 121.01080 | 81 ft | 0 kts | 312° |
| 2026-05-09 05:18 | 14.51961 | 121.01067 | 81 ft | 6 kts | 314° |
| 2026-05-09 05:18 | 14.51988 | 121.01038 | 81 ft | 3 kts | 315° |
| 2026-05-09 05:18 | 14.51993 | 121.01034 | 81 ft | 0 kts | 314° |
| 2026-05-09 05:20 | 14.51998 | 121.01028 | 81 ft | 2 kts | 315° |
| 2026-05-09 05:20 | 14.52017 | 121.01009 | 81 ft | 5 kts | 315° |
| 2026-05-09 05:20 | 14.52054 | 121.00970 | 81 ft | 9 kts | 315° |
| 2026-05-09 05:21 | 14.52107 | 121.00917 | 81 ft | 9 kts | 314° |
| 2026-05-09 05:21 | 14.52152 | 121.00869 | 81 ft | 9 kts | 314° |
| 2026-05-09 05:21 | 14.52201 | 121.00819 | 81 ft | 10 kts | 315° |
| 2026-05-09 05:21 | 14.52254 | 121.00764 | 81 ft | 11 kts | 315° |
| 2026-05-09 05:22 | 14.52311 | 121.00706 | 81 ft | 11 kts | 315° |
| 2026-05-09 05:22 | 14.52371 | 121.00644 | 81 ft | 12 kts | 315° |
| 2026-05-09 05:22 | 14.52433 | 121.00581 | 81 ft | 12 kts | 315° |
| 2026-05-09 05:22 | 14.52486 | 121.00523 | 81 ft | 9 kts | 302° |
| 2026-05-09 05:23 | 14.52466 | 121.00465 | 81 ft | 9 kts | 226° |
| 2026-05-09 05:23 | 14.52417 | 121.00414 | 81 ft | 7 kts | 226° |
| 2026-05-09 05:23 | 14.52381 | 121.00393 | 81 ft | 4 kts | 169° |
| 2026-05-09 05:23 | 14.52365 | 121.00404 | 81 ft | 3 kts | 141° |
| 2026-05-09 05:24 | 14.52359 | 121.00409 | 81 ft | 0 kts | 136° |
| 2026-05-09 05:24 | 14.52358 | 121.00410 | 81 ft | 3 kts | 136° |
| 2026-05-09 05:24 | 14.52149 | 121.00626 | 81 ft | 82 kts | 134° |
| 2026-05-09 05:24 | 14.51576 | 121.01217 | 82 ft | 149 kts | 133° |
| 2026-05-09 05:25 | 14.50770 | 121.02062 | 409 ft | 171 kts | 133° |
| 2026-05-09 05:25 | 14.49952 | 121.02899 | 1205 ft | 163 kts | 131° |
| 2026-05-09 05:25 | 14.48480 | 121.04415 | 1995 ft | 148 kts | 129° |
| 2026-05-09 05:26 | 14.47748 | 121.05180 | 2254 ft | 149 kts | 129° |
| 2026-05-09 05:26 | 14.47022 | 121.05936 | 2510 ft | 150 kts | 130° |
| 2026-05-09 05:26 | 14.46279 | 121.06709 | 2780 ft | 151 kts | 130° |
| 2026-05-09 05:26 | 14.45527 | 121.07489 | 3055 ft | 152 kts | 130° |
| 2026-05-09 05:27 | 14.44769 | 121.08274 | 3271 ft | 158 kts | 130° |
| 2026-05-09 05:27 | 14.43969 | 121.09103 | 3448 ft | 168 kts | 130° |
| 2026-05-09 05:27 | 14.43162 | 121.10017 | 3646 ft | 177 kts | 123° |
| 2026-05-09 05:27 | 14.42446 | 121.11098 | 3867 ft | 187 kts | 119° |
| 2026-05-09 05:28 | 14.41712 | 121.12283 | 4097 ft | 199 kts | 119° |
| 2026-05-09 05:28 | 14.40944 | 121.13527 | 4325 ft | 212 kts | 120° |
| 2026-05-09 05:28 | 14.40129 | 121.14843 | 4562 ft | 224 kts | 120° |
| 2026-05-09 05:28 | 14.39260 | 121.16245 | 4717 ft | 243 kts | 120° |
| 2026-05-09 05:29 | 14.38310 | 121.17772 | 4988 ft | 258 kts | 121° |
| 2026-05-09 05:29 | 14.37313 | 121.19371 | 5331 ft | 270 kts | 120° |
| 2026-05-09 05:29 | 14.36298 | 121.21001 | 5880 ft | 273 kts | 121° |
| 2026-05-09 05:29 | 14.35266 | 121.22657 | 6471 ft | 274 kts | 121° |
| 2026-05-09 05:30 | 14.34235 | 121.24309 | 7061 ft | 276 kts | 120° |
| 2026-05-09 05:30 | 14.33197 | 121.25977 | 7637 ft | 279 kts | 120° |
| 2026-05-09 05:30 | 14.32155 | 121.27659 | 8194 ft | 281 kts | 120° |
| 2026-05-09 05:30 | 14.31100 | 121.29365 | 8761 ft | 284 kts | 120° |
| 2026-05-09 05:31 | 14.30028 | 121.31093 | 9339 ft | 286 kts | 120° |
| 2026-05-09 05:31 | 14.28957 | 121.32814 | 9924 ft | 288 kts | 120° |
| 2026-05-09 05:31 | 14.27867 | 121.34569 | 10392 ft | 294 kts | 120° |
| 2026-05-09 05:31 | 14.26732 | 121.36402 | 10633 ft | 307 kts | 120° |
| 2026-05-09 05:32 | 14.25564 | 121.38294 | 10870 ft | 320 kts | 120° |
| 2026-05-09 05:32 | 14.24338 | 121.40288 | 11105 ft | 333 kts | 120° |
| 2026-05-09 05:32 | 14.23089 | 121.42326 | 11305 ft | 345 kts | 120° |
| 2026-05-09 05:32 | 14.21769 | 121.44481 | 11540 ft | 356 kts | 120° |
| 2026-05-09 05:33 | 14.20439 | 121.46661 | 11803 ft | 364 kts | 120° |
| 2026-05-09 05:33 | 14.19092 | 121.48868 | 12205 ft | 367 kts | 120° |
| 2026-05-09 05:33 | 14.17721 | 121.51115 | 12671 ft | 368 kts | 120° |
| 2026-05-09 05:33 | 14.16360 | 121.53338 | 13095 ft | 370 kts | 120° |
| 2026-05-09 05:34 | 14.14984 | 121.55585 | 13509 ft | 372 kts | 120° |
| 2026-05-09 05:34 | 14.13580 | 121.57867 | 13921 ft | 374 kts | 120° |
| 2026-05-09 05:34 | 14.12178 | 121.60152 | 14266 ft | 378 kts | 120° |
| 2026-05-09 05:34 | 14.10766 | 121.62453 | 14641 ft | 380 kts | 120° |
| 2026-05-09 05:35 | 14.09164 | 121.64658 | 15005 ft | 385 kts | 129° |
| 2026-05-09 05:35 | 14.07225 | 121.66569 | 15376 ft | 389 kts | 139° |
| 2026-05-09 05:35 | 14.05036 | 121.68221 | 15752 ft | 393 kts | 143° |
| 2026-05-09 05:35 | 14.02772 | 121.69826 | 16087 ft | 396 kts | 143° |
| 2026-05-09 05:36 | 14.00455 | 121.71456 | 16419 ft | 398 kts | 143° |
| 2026-05-09 05:36 | 13.98163 | 121.73077 | 16766 ft | 400 kts | 143° |
| 2026-05-09 05:36 | 13.95868 | 121.74708 | 17112 ft | 402 kts | 143° |
| 2026-05-09 05:36 | 13.93566 | 121.76350 | 17437 ft | 404 kts | 143° |
| 2026-05-09 05:37 | 13.91241 | 121.78010 | 17763 ft | 406 kts | 143° |
| 2026-05-09 05:37 | 13.88922 | 121.79667 | 18088 ft | 408 kts | 143° |
| 2026-05-09 05:37 | 13.86577 | 121.81342 | 18401 ft | 409 kts | 143° |
| 2026-05-09 05:37 | 13.84240 | 121.83066 | 18724 ft | 411 kts | 142° |
| 2026-05-09 05:38 | 13.81943 | 121.84802 | 19004 ft | 413 kts | 142° |
| 2026-05-09 05:38 | 13.79601 | 121.86577 | 19310 ft | 415 kts | 142° |
| 2026-05-09 05:38 | 13.77293 | 121.88326 | 19604 ft | 417 kts | 142° |
| 2026-05-09 05:38 | 13.74938 | 121.90108 | 19875 ft | 419 kts | 142° |
| 2026-05-09 05:39 | 13.72569 | 121.91898 | 20160 ft | 420 kts | 142° |
| 2026-05-09 05:39 | 13.70215 | 121.93675 | 20419 ft | 422 kts | 142° |
| 2026-05-09 05:39 | 13.67836 | 121.95470 | 20716 ft | 423 kts | 142° |
| 2026-05-09 05:39 | 13.65438 | 121.97277 | 21061 ft | 423 kts | 142° |
| 2026-05-09 05:40 | 13.63101 | 121.99039 | 21501 ft | 420 kts | 142° |
| 2026-05-09 05:40 | 13.60718 | 122.00835 | 21822 ft | 420 kts | 142° |
| 2026-05-09 05:40 | 13.58363 | 122.02608 | 22074 ft | 422 kts | 142° |
| 2026-05-09 05:40 | 13.55972 | 122.04408 | 22334 ft | 424 kts | 142° |
| 2026-05-09 05:41 | 13.53583 | 122.06207 | 22592 ft | 426 kts | 142° |
| 2026-05-09 05:41 | 13.51182 | 122.08012 | 22843 ft | 428 kts | 142° |
| 2026-05-09 05:41 | 13.48757 | 122.09837 | 23083 ft | 430 kts | 142° |
| 2026-05-09 05:41 | 13.46362 | 122.11638 | 23311 ft | 433 kts | 142° |
| 2026-05-09 05:42 | 13.43924 | 122.13472 | 23546 ft | 435 kts | 142° |
| 2026-05-09 05:42 | 13.41443 | 122.15337 | 23798 ft | 436 kts | 142° |
| 2026-05-09 05:42 | 13.38997 | 122.17176 | 24050 ft | 438 kts | 142° |
| 2026-05-09 05:42 | 13.36530 | 122.19030 | 24306 ft | 439 kts | 142° |
| 2026-05-09 05:43 | 13.34052 | 122.20891 | 24555 ft | 440 kts | 142° |
| 2026-05-09 05:43 | 13.31592 | 122.22739 | 24781 ft | 442 kts | 142° |
| 2026-05-09 05:43 | 13.29079 | 122.24625 | 25002 ft | 444 kts | 142° |
| 2026-05-09 05:43 | 13.26586 | 122.26496 | 25220 ft | 446 kts | 142° |
| 2026-05-09 05:44 | 13.24056 | 122.28396 | 25433 ft | 448 kts | 142° |
| 2026-05-09 05:44 | 13.21555 | 122.30273 | 25644 ft | 450 kts | 142° |
| 2026-05-09 05:44 | 13.18999 | 122.32191 | 25847 ft | 452 kts | 142° |
| 2026-05-09 05:44 | 13.16471 | 122.34087 | 26034 ft | 454 kts | 143° |
| 2026-05-09 05:45 | 13.13897 | 122.36018 | 26224 ft | 457 kts | 143° |
| 2026-05-09 05:45 | 13.11339 | 122.37934 | 26443 ft | 458 kts | 143° |
| 2026-05-09 05:45 | 13.08750 | 122.39874 | 26659 ft | 459 kts | 143° |
| 2026-05-09 05:45 | 13.06178 | 122.41801 | 26862 ft | 461 kts | 143° |
| 2026-05-09 05:46 | 13.03559 | 122.43763 | 27085 ft | 462 kts | 143° |
| 2026-05-09 05:46 | 13.00981 | 122.45692 | 27289 ft | 463 kts | 143° |
| 2026-05-09 05:46 | 12.98356 | 122.47656 | 27485 ft | 465 kts | 143° |
| 2026-05-09 05:46 | 12.95737 | 122.49616 | 27689 ft | 466 kts | 143° |
| 2026-05-09 05:47 | 12.93128 | 122.51567 | 27867 ft | 468 kts | 143° |
| 2026-05-09 05:47 | 12.90471 | 122.53555 | 28036 ft | 470 kts | 143° |
| 2026-05-09 05:47 | 12.87835 | 122.55527 | 28208 ft | 471 kts | 143° |
| 2026-05-09 05:47 | 12.85163 | 122.57525 | 28380 ft | 473 kts | 143° |
| 2026-05-09 05:48 | 12.82477 | 122.59533 | 28535 ft | 475 kts | 143° |
| 2026-05-09 05:48 | 12.79824 | 122.61517 | 28712 ft | 477 kts | 144° |
| 2026-05-09 05:48 | 12.77139 | 122.63522 | 28905 ft | 477 kts | 144° |
| 2026-05-09 05:48 | 12.74456 | 122.65527 | 29109 ft | 478 kts | 144° |
| 2026-05-09 05:49 | 12.71757 | 122.67541 | 29302 ft | 479 kts | 144° |
| 2026-05-09 05:49 | 12.69037 | 122.69570 | 29476 ft | 480 kts | 144° |
| 2026-05-09 05:49 | 12.66350 | 122.71574 | 29636 ft | 481 kts | 144° |
| 2026-05-09 05:49 | 12.63649 | 122.73589 | 29793 ft | 482 kts | 144° |
| 2026-05-09 05:50 | 12.60927 | 122.75618 | 29964 ft | 482 kts | 144° |
| 2026-05-09 05:50 | 12.58207 | 122.77647 | 30290 ft | 478 kts | 144° |
| 2026-05-09 05:50 | 12.55573 | 122.79612 | 30951 ft | 467 kts | 144° |
| 2026-05-09 05:50 | 12.52957 | 122.81564 | 31484 ft | 460 kts | 145° |
| 2026-05-09 05:51 | 12.50396 | 122.83474 | 31793 ft | 458 kts | 145° |
| 2026-05-09 05:51 | 12.47802 | 122.85406 | 32032 ft | 457 kts | 145° |
| 2026-05-09 05:51 | 12.45233 | 122.87320 | 32265 ft | 457 kts | 145° |
| 2026-05-09 05:51 | 12.42660 | 122.89236 | 32521 ft | 456 kts | 145° |
| 2026-05-09 05:52 | 12.40091 | 122.91148 | 32821 ft | 454 kts | 145° |
| 2026-05-09 05:52 | 12.37542 | 122.93045 | 33111 ft | 453 kts | 145° |
| 2026-05-09 05:52 | 12.34950 | 122.94974 | 33368 ft | 453 kts | 145° |
| 2026-05-09 05:52 | 12.32420 | 122.96855 | 33581 ft | 454 kts | 145° |
| 2026-05-09 05:53 | 12.29819 | 122.98785 | 33778 ft | 455 kts | 145° |
| 2026-05-09 05:53 | 12.27251 | 123.00688 | 33972 ft | 456 kts | 145° |
| 2026-05-09 05:53 | 12.24662 | 123.02610 | 34175 ft | 457 kts | 145° |
| 2026-05-09 05:53 | 12.22100 | 123.04511 | 34379 ft | 457 kts | 145° |
| 2026-05-09 05:54 | 12.19518 | 123.06428 | 34563 ft | 458 kts | 145° |
| 2026-05-09 05:54 | 12.16936 | 123.08345 | 34745 ft | 458 kts | 146° |
| 2026-05-09 05:54 | 12.11756 | 123.12190 | 34818 ft | 459 kts | 146° |
| 2026-05-09 05:55 | 12.06539 | 123.16058 | 34827 ft | 459 kts | 145° |
| 2026-05-09 05:55 | 12.01373 | 123.19895 | 34818 ft | 459 kts | 146° |
| 2026-05-09 05:56 | 11.96213 | 123.23718 | 34818 ft | 459 kts | 146° |
| 2026-05-09 05:56 | 11.91031 | 123.27555 | 34816 ft | 459 kts | 145° |
| 2026-05-09 05:57 | 11.85811 | 123.31422 | 34816 ft | 460 kts | 145° |
| 2026-05-09 05:57 | 11.80621 | 123.35263 | 34813 ft | 460 kts | 145° |
| 2026-05-09 05:58 | 11.75450 | 123.39090 | 34808 ft | 460 kts | 145° |
| 2026-05-09 05:58 | 11.70237 | 123.42946 | 34808 ft | 459 kts | 146° |
| 2026-05-09 05:59 | 11.65056 | 123.46774 | 34811 ft | 459 kts | 145° |
| 2026-05-09 05:59 | 11.59882 | 123.50596 | 34817 ft | 459 kts | 145° |
| 2026-05-09 06:00 | 11.54669 | 123.54444 | 34820 ft | 460 kts | 145° |
| 2026-05-09 06:00 | 11.49492 | 123.58266 | 34823 ft | 460 kts | 145° |
| 2026-05-09 06:01 | 11.44281 | 123.62109 | 34825 ft | 460 kts | 145° |
| 2026-05-09 06:01 | 11.39109 | 123.65925 | 34823 ft | 460 kts | 145° |
| 2026-05-09 06:02 | 11.33893 | 123.69773 | 34821 ft | 460 kts | 146° |
| 2026-05-09 06:02 | 11.28679 | 123.73618 | 34821 ft | 459 kts | 146° |
| 2026-05-09 06:03 | 11.25320 | 123.76095 | 34820 ft | 459 kts | 146° |
| 2026-05-09 06:03 | 11.25184 | 123.76193 | 34821 ft | 460 kts | 146° |
| 2026-05-09 06:04 | 11.19900 | 123.79958 | 34820 ft | 458 kts | 150° |
| 2026-05-09 06:04 | 11.14298 | 123.83001 | 34815 ft | 456 kts | 158° |
| 2026-05-09 06:05 | 11.08310 | 123.85226 | 34820 ft | 454 kts | 166° |
| 2026-05-09 06:05 | 11.02130 | 123.86591 | 34821 ft | 453 kts | 172° |
| 2026-05-09 06:06 | 10.95892 | 123.87665 | 34819 ft | 453 kts | 172° |
| 2026-05-09 06:06 | 10.89633 | 123.88741 | 34817 ft | 454 kts | 172° |
| 2026-05-09 06:07 | 10.83402 | 123.89821 | 34814 ft | 454 kts | 171° |
| 2026-05-09 06:07 | 10.77159 | 123.90905 | 34813 ft | 454 kts | 171° |
| 2026-05-09 06:08 | 10.70882 | 123.91993 | 34813 ft | 454 kts | 171° |
| 2026-05-09 06:08 | 10.64629 | 123.93076 | 34815 ft | 453 kts | 171° |
| 2026-05-09 06:09 | 10.58406 | 123.94154 | 34820 ft | 452 kts | 171° |
| 2026-05-09 06:09 | 10.52151 | 123.95237 | 34825 ft | 452 kts | 171° |
| 2026-05-09 06:10 | 10.45945 | 123.96310 | 34830 ft | 452 kts | 171° |
| 2026-05-09 06:10 | 10.39691 | 123.97391 | 34828 ft | 452 kts | 171° |
| 2026-05-09 06:11 | 10.33455 | 123.98506 | 34802 ft | 454 kts | 169° |
| 2026-05-09 06:11 | 10.30374 | 123.99237 | 34491 ft | 453 kts | 166° |
| 2026-05-09 06:11 | 10.27363 | 124.00133 | 34055 ft | 448 kts | 163° |
| 2026-05-09 06:12 | 10.24404 | 124.01102 | 33414 ft | 446 kts | 163° |
| 2026-05-09 06:12 | 10.21455 | 124.02077 | 32660 ft | 447 kts | 163° |
| 2026-05-09 06:12 | 10.18478 | 124.03059 | 31854 ft | 449 kts | 163° |
| 2026-05-09 06:12 | 10.15483 | 124.04045 | 31020 ft | 453 kts | 163° |
| 2026-05-09 06:13 | 10.12489 | 124.05031 | 30200 ft | 455 kts | 162° |
| 2026-05-09 06:13 | 10.09466 | 124.06026 | 29378 ft | 457 kts | 162° |
| 2026-05-09 06:13 | 10.06428 | 124.07024 | 28530 ft | 459 kts | 162° |
| 2026-05-09 06:13 | 10.03381 | 124.08025 | 27670 ft | 462 kts | 162° |
| 2026-05-09 06:14 | 10.00314 | 124.09029 | 26803 ft | 464 kts | 161° |
| 2026-05-09 06:14 | 9.97224 | 124.10044 | 26143 ft | 460 kts | 161° |
| 2026-05-09 06:14 | 9.94172 | 124.11047 | 25616 ft | 454 kts | 161° |
| 2026-05-09 06:14 | 9.91183 | 124.12027 | 25045 ft | 449 kts | 161° |
| 2026-05-09 06:15 | 9.88222 | 124.12999 | 24449 ft | 444 kts | 161° |
| 2026-05-09 06:15 | 9.85289 | 124.13961 | 23861 ft | 440 kts | 160° |
| 2026-05-09 06:15 | 9.82375 | 124.14918 | 23294 ft | 436 kts | 160° |
| 2026-05-09 06:15 | 9.79481 | 124.15866 | 22740 ft | 431 kts | 160° |
| 2026-05-09 06:16 | 9.76653 | 124.16793 | 22195 ft | 426 kts | 160° |
| 2026-05-09 06:16 | 9.73832 | 124.17718 | 21641 ft | 422 kts | 159° |
| 2026-05-09 06:16 | 9.71044 | 124.18635 | 21056 ft | 420 kts | 159° |
| 2026-05-09 06:16 | 9.68265 | 124.19549 | 20463 ft | 417 kts | 159° |
| 2026-05-09 06:17 | 9.65499 | 124.20455 | 19881 ft | 415 kts | 159° |
| 2026-05-09 06:17 | 9.62780 | 124.21348 | 19310 ft | 413 kts | 159° |
| 2026-05-09 06:17 | 9.60042 | 124.22245 | 18741 ft | 410 kts | 159° |
| 2026-05-09 06:17 | 9.58635 | 124.22706 | 18452 ft | 409 kts | 159° |
| 2026-05-09 06:18 | 9.55935 | 124.23590 | 17921 ft | 406 kts | 159° |
| 2026-05-09 06:18 | 9.53244 | 124.24470 | 17390 ft | 403 kts | 159° |
| 2026-05-09 06:18 | 9.50593 | 124.25339 | 16867 ft | 400 kts | 159° |
| 2026-05-09 06:18 | 9.47912 | 124.26218 | 16345 ft | 398 kts | 159° |
| 2026-05-09 06:19 | 9.45282 | 124.27079 | 16005 ft | 390 kts | 159° |
| 2026-05-09 06:19 | 9.42709 | 124.27922 | 15437 ft | 390 kts | 159° |
| 2026-05-09 06:19 | 9.40111 | 124.28773 | 14873 ft | 389 kts | 160° |
| 2026-05-09 06:19 | 9.37520 | 124.29620 | 14387 ft | 386 kts | 160° |
| 2026-05-09 06:20 | 9.34963 | 124.30456 | 13909 ft | 383 kts | 160° |
| 2026-05-09 06:20 | 9.32426 | 124.31287 | 13418 ft | 380 kts | 160° |
| 2026-05-09 06:20 | 9.29897 | 124.32114 | 12916 ft | 377 kts | 160° |
| 2026-05-09 06:20 | 9.27395 | 124.32929 | 12416 ft | 374 kts | 160° |
| 2026-05-09 06:21 | 9.24933 | 124.33733 | 11909 ft | 371 kts | 160° |
| 2026-05-09 06:21 | 9.22491 | 124.34530 | 11610 ft | 369 kts | 160° |
| 2026-05-09 06:21 | 9.20002 | 124.35343 | 11372 ft | 369 kts | 160° |
| 2026-05-09 06:21 | 9.17539 | 124.36148 | 11135 ft | 368 kts | 160° |
| 2026-05-09 06:22 | 9.15111 | 124.36941 | 10889 ft | 367 kts | 159° |
| 2026-05-09 06:22 | 9.12688 | 124.37732 | 10658 ft | 360 kts | 159° |
| 2026-05-09 06:22 | 9.10347 | 124.38495 | 10525 ft | 345 kts | 159° |
| 2026-05-09 06:22 | 9.08113 | 124.39223 | 10429 ft | 328 kts | 159° |
| 2026-05-09 06:23 | 9.05982 | 124.39916 | 10347 ft | 311 kts | 159° |
| 2026-05-09 06:23 | 9.03942 | 124.40540 | 10234 ft | 297 kts | 166° |
| 2026-05-09 06:23 | 9.01913 | 124.40586 | 10111 ft | 292 kts | 187° |
| 2026-05-09 06:23 | 8.99996 | 124.39944 | 10000 ft | 290 kts | 202° |
| 2026-05-09 06:24 | 8.98143 | 124.39060 | 9665 ft | 291 kts | 204° |
| 2026-05-09 06:24 | 8.96318 | 124.38164 | 9309 ft | 292 kts | 203° |
| 2026-05-09 06:24 | 8.94489 | 124.37278 | 8956 ft | 292 kts | 203° |
| 2026-05-09 06:24 | 8.92647 | 124.36401 | 8605 ft | 291 kts | 202° |
| 2026-05-09 06:25 | 8.90786 | 124.35524 | 8246 ft | 291 kts | 202° |
| 2026-05-09 06:25 | 8.88945 | 124.34660 | 7908 ft | 289 kts | 202° |
| 2026-05-09 06:25 | 8.87128 | 124.33807 | 7599 ft | 287 kts | 202° |
| 2026-05-09 06:25 | 8.85302 | 124.32951 | 7260 ft | 286 kts | 202° |
| 2026-05-09 06:26 | 8.83502 | 124.32104 | 6923 ft | 285 kts | 202° |
| 2026-05-09 06:26 | 8.81686 | 124.31252 | 6567 ft | 284 kts | 202° |
| 2026-05-09 06:26 | 8.79915 | 124.30421 | 6313 ft | 276 kts | 203° |
| 2026-05-09 06:26 | 8.78185 | 124.29607 | 6039 ft | 273 kts | 203° |
| 2026-05-09 06:27 | 8.76453 | 124.28794 | 5629 ft | 275 kts | 203° |
| 2026-05-09 06:27 | 8.74714 | 124.27979 | 5257 ft | 274 kts | 203° |
| 2026-05-09 06:27 | 8.72985 | 124.27167 | 5006 ft | 268 kts | 203° |
| 2026-05-09 06:27 | 8.71328 | 124.26387 | 4937 ft | 258 kts | 203° |
| 2026-05-09 06:28 | 8.69705 | 124.25625 | 4708 ft | 254 kts | 204° |
| 2026-05-09 06:28 | 8.68263 | 124.24623 | 4656 ft | 253 kts | 233° |
| 2026-05-09 06:28 | 8.67610 | 124.22994 | 4687 ft | 252 kts | 268° |
| 2026-05-09 06:28 | 8.67868 | 124.21286 | 4688 ft | 247 kts | 297° |
| 2026-05-09 06:29 | 8.68844 | 124.19879 | 4702 ft | 243 kts | 316° |
| 2026-05-09 06:29 | 8.70206 | 124.18878 | 4693 ft | 237 kts | 343° |
| 2026-05-09 06:29 | 8.71804 | 124.18686 | 4689 ft | 232 kts | 16° |
| 2026-05-09 06:29 | 8.73219 | 124.19417 | 4701 ft | 229 kts | 44° |
| 2026-05-09 06:30 | 8.74138 | 124.20713 | 4692 ft | 230 kts | 68° |
| 2026-05-09 06:30 | 8.74402 | 124.22314 | 4687 ft | 232 kts | 93° |
| 2026-05-09 06:30 | 8.73924 | 124.23875 | 4685 ft | 237 kts | 119° |
| 2026-05-09 06:30 | 8.72764 | 124.25065 | 4684 ft | 243 kts | 147° |
| 2026-05-09 06:31 | 8.71162 | 124.25592 | 4554 ft | 244 kts | 171° |
| 2026-05-09 06:31 | 8.69464 | 124.25733 | 4224 ft | 245 kts | 173° |
| 2026-05-09 06:31 | 8.67761 | 124.25846 | 4024 ft | 244 kts | 174° |
| 2026-05-09 06:31 | 8.66092 | 124.25954 | 3853 ft | 235 kts | 174° |
| 2026-05-09 06:32 | 8.64483 | 124.26058 | 3781 ft | 221 kts | 173° |
| 2026-05-09 06:32 | 8.62955 | 124.26160 | 3741 ft | 219 kts | 173° |
| 2026-05-09 06:32 | 8.61428 | 124.26286 | 3687 ft | 218 kts | 168° |
| 2026-05-09 06:33 | 8.59668 | 124.28275 | 3251 ft | 199 kts | 87° |
| 2026-05-09 06:33 | 8.59838 | 124.29611 | 3113 ft | 185 kts | 80° |
| 2026-05-09 06:33 | 8.59998 | 124.30867 | 2939 ft | 174 kts | 81° |
| 2026-05-09 06:34 | 8.60236 | 124.33244 | 2371 ft | 160 kts | 82° |
| 2026-05-09 06:34 | 8.60329 | 124.34339 | 2173 ft | 156 kts | 82° |
| 2026-05-09 06:34 | 8.60419 | 124.35427 | 1955 ft | 155 kts | 82° |
| 2026-05-09 06:34 | 8.60507 | 124.36517 | 1746 ft | 154 kts | 82° |
| 2026-05-09 06:35 | 8.60593 | 124.37601 | 1542 ft | 154 kts | 82° |
| 2026-05-09 06:35 | 8.60679 | 124.38683 | 1338 ft | 153 kts | 82° |
| 2026-05-09 06:35 | 8.60764 | 124.39761 | 1140 ft | 153 kts | 82° |
| 2026-05-09 06:35 | 8.60847 | 124.40828 | 937 ft | 152 kts | 82° |
| 2026-05-09 06:36 | 8.60930 | 124.41893 | 734 ft | 152 kts | 82° |
| 2026-05-09 06:36 | 8.61005 | 124.42959 | 549 ft | 152 kts | 82° |
| 2026-05-09 06:36 | 8.61084 | 124.44012 | 353 ft | 150 kts | 82° |
| 2026-05-09 06:36 | 8.61171 | 124.45057 | 199 ft | 145 kts | 82° |
| 2026-05-09 06:37 | 8.61236 | 124.45860 | 195 ft | 72 kts | 85° |
| 2026-05-09 06:37 | 8.61259 | 124.46142 | 195 ft | 19 kts | 82° |
| 2026-05-09 06:37 | 8.61272 | 124.46226 | 195 ft | 4 kts | 94° |
| 2026-05-09 06:37 | 8.61258 | 124.46261 | 195 ft | 5 kts | 108° |
| 2026-05-09 06:38 | 8.61268 | 124.46264 | 195 ft | 4 kts | 290° |
| 2026-05-09 06:38 | 8.61266 | 124.46227 | 195 ft | 6 kts | 264° |
| 2026-05-09 06:38 | 8.61261 | 124.46179 | 195 ft | 7 kts | 265° |
| 2026-05-09 06:38 | 8.61257 | 124.46121 | 195 ft | 9 kts | 265° |
| 2026-05-09 06:39 | 8.61252 | 124.46050 | 195 ft | 11 kts | 265° |
| 2026-05-09 06:39 | 8.61231 | 124.45976 | 195 ft | 11 kts | 217° |
| 2026-05-09 06:39 | 8.61179 | 124.45966 | 195 ft | 11 kts | 179° |
| 2026-05-09 06:39 | 8.61151 | 124.45966 | 195 ft | 12 kts | 176° |
| 2026-05-09 06:40 | 8.60999 | 124.45866 | 195 ft | 11 kts | 266° |
| 2026-05-09 06:40 | 8.60994 | 124.45797 | 195 ft | 5 kts | 263° |
| 2026-05-09 06:40 | 8.60971 | 124.45774 | 195 ft | 5 kts | 184° |
| 2026-05-09 06:41 | 8.60927 | 124.45777 | 195 ft | 5 kts | 175° |
| 2026-05-09 06:41 | 8.60910 | 124.45779 | 195 ft | 0 kts | 175° |